createdAt,value
2023-05-15T00:00:44.576Z,79.83
2023-05-15T00:02:46.796Z,79.78
2023-05-15T00:04:48.527Z,79.98
2023-05-15T00:06:50.261Z,80.41
2023-05-15T00:08:51.711Z,79.82
2023-05-15T00:11:01.560Z,79.55
2023-05-15T00:13:03.684Z,79.86
2023-05-15T00:15:05.454Z,80.47
2023-05-15T00:17:07.870Z,81.64
2023-05-15T00:19:09.342Z,82.54
2023-05-15T00:21:10.822Z,82.97
2023-05-15T00:23:12.296Z,83.51
2023-05-15T00:25:13.797Z,83.56
2023-05-15T00:27:15.486Z,83.70
2023-05-15T00:29:16.960Z,83.98
2023-05-15T00:31:18.480Z,83.33
2023-05-15T00:33:19.987Z,83.84
2023-05-15T00:35:21.455Z,83.46
2023-05-15T00:37:23.468Z,83.25
2023-05-15T00:39:24.968Z,83.74
2023-05-15T00:41:28.742Z,84.34
2023-05-15T00:43:30.476Z,83.95
2023-05-15T00:45:32.005Z,84.06
2023-05-15T00:47:33.485Z,83.64
2023-05-15T00:49:35.751Z,83.15
2023-05-15T00:51:37.420Z,82.82
2023-05-15T00:53:38.979Z,82.27
2023-05-15T00:55:40.734Z,82.37
2023-05-15T00:57:42.566Z,82.23
2023-05-15T00:59:43.997Z,81.76
2023-05-15T01:01:45.550Z,81.46
2023-05-15T01:03:47.003Z,81.30
2023-05-15T01:05:48.494Z,80.89
2023-05-15T01:07:55.115Z,81.56
2023-05-15T01:09:56.560Z,82.52
2023-05-15T01:11:58.035Z,82.94
2023-05-15T01:13:59.537Z,83.06
2023-05-15T01:16:00.974Z,82.36
2023-05-15T01:18:03.442Z,82.12
2023-05-15T01:20:06.483Z,82.58
2023-05-15T01:22:11.412Z,83.29
2023-05-15T01:24:21.850Z,83.79
2023-05-15T01:26:29.213Z,83.31
2023-05-15T01:28:38.533Z,83.17
2023-05-15T01:30:41.571Z,83.27
2023-05-15T01:32:55.345Z,83.07
2023-05-15T01:35:11.220Z,82.34
2023-05-15T01:37:12.767Z,81.80
2023-05-15T01:39:14.346Z,82.16
2023-05-15T01:41:18.898Z,82.32
2023-05-15T01:43:22.459Z,81.83
2023-05-15T01:45:24.508Z,81.63
2023-05-15T01:47:53.199Z,81.62
2023-05-15T01:49:54.714Z,81.10
2023-05-15T01:51:58.739Z,80.76
2023-05-15T01:54:00.539Z,80.56
2023-05-15T01:56:02.489Z,80.48
2023-05-15T01:58:03.992Z,80.41
2023-05-15T02:00:05.854Z,80.20
2023-05-15T02:02:07.448Z,80.31
2023-05-15T02:04:08.916Z,80.01
2023-05-15T02:06:10.438Z,80.02
2023-05-15T02:08:11.968Z,79.83
2023-05-15T02:10:13.495Z,79.63
2023-05-15T02:12:14.909Z,79.62
2023-05-15T02:14:17.264Z,79.39
2023-05-15T02:16:18.747Z,81.01
2023-05-15T02:18:20.644Z,82.07
2023-05-15T02:20:22.098Z,82.26
2023-05-15T02:22:23.520Z,81.84
2023-05-15T02:24:25.011Z,81.71
2023-05-15T02:26:31.015Z,81.29
2023-05-15T02:28:36.633Z,80.80
2023-05-15T02:30:38.162Z,80.69
2023-05-15T02:32:58.459Z,80.29
2023-05-15T02:35:19.475Z,79.91
2023-05-15T02:37:21.434Z,80.12
2023-05-15T02:39:25.111Z,79.95
2023-05-15T02:41:26.669Z,79.54
2023-05-15T02:43:28.167Z,79.35
2023-05-15T02:45:29.686Z,79.23
2023-05-15T02:47:31.241Z,79.48
2023-05-15T02:49:32.831Z,79.26
2023-05-15T02:51:34.256Z,79.41
2023-05-15T02:53:41.908Z,80.03
2023-05-15T02:55:43.477Z,80.39
2023-05-15T02:57:44.975Z,80.46
2023-05-15T02:59:46.426Z,80.27
2023-05-15T03:01:48.100Z,80.26
2023-05-15T03:03:49.684Z,80.25
2023-05-15T03:05:51.250Z,79.71
2023-05-15T03:07:52.694Z,79.71
2023-05-15T03:09:54.193Z,79.51
2023-05-15T03:11:55.662Z,78.98
2023-05-15T03:15:58.544Z,79.31
2023-05-15T03:18:00.020Z,79.29
2023-05-15T03:20:01.535Z,79.27
2023-05-15T03:22:03.035Z,79.35
2023-05-15T03:24:04.656Z,79.44
2023-05-15T03:26:06.123Z,79.06
2023-05-15T03:28:07.593Z,79.40
2023-05-15T03:30:09.366Z,79.42
2023-05-15T03:32:10.930Z,79.74
2023-05-15T03:34:12.427Z,79.51
2023-05-15T03:36:13.889Z,79.12
2023-05-15T03:38:15.404Z,79.12
2023-05-15T03:40:16.971Z,79.08
2023-05-15T03:42:23.673Z,79.04
2023-05-15T03:44:25.160Z,78.91
2023-05-15T03:46:26.647Z,78.85
2023-05-15T03:48:28.221Z,79.23
2023-05-15T03:50:29.640Z,79.46
2023-05-15T03:52:31.194Z,79.55
2023-05-15T03:54:32.762Z,79.92
2023-05-15T03:56:34.252Z,80.13
2023-05-15T03:58:35.769Z,80.47
2023-05-15T04:00:37.244Z,80.38
2023-05-15T04:02:38.945Z,80.72
2023-05-15T04:04:40.556Z,80.74
2023-05-15T04:06:41.983Z,80.71
2023-05-15T04:08:43.457Z,80.45
2023-05-15T04:10:44.915Z,80.45
2023-05-15T04:12:46.417Z,80.55
2023-05-15T04:14:47.878Z,80.49
2023-05-15T04:16:49.393Z,80.67
2023-05-15T04:18:50.947Z,80.23
2023-05-15T04:20:52.835Z,79.95
2023-05-15T04:22:54.271Z,80.00
2023-05-15T04:24:55.742Z,79.84
2023-05-15T04:26:57.294Z,79.35
2023-05-15T04:29:03.850Z,79.63
2023-05-15T04:31:06.088Z,79.62
2023-05-15T04:33:07.865Z,79.38
2023-05-15T04:35:10.650Z,79.05
2023-05-15T04:37:12.255Z,78.71
2023-05-15T04:39:13.852Z,78.91
2023-05-15T04:41:15.337Z,78.54
2023-05-15T04:43:16.924Z,78.71
2023-05-15T04:45:18.417Z,78.81
2023-05-15T04:47:20.051Z,78.62
2023-05-15T04:49:21.475Z,78.64
2023-05-15T04:51:22.894Z,78.23
2023-05-15T04:53:24.455Z,78.05
2023-05-15T04:55:25.998Z,78.38
2023-05-15T04:57:28.037Z,77.66
2023-05-15T04:59:29.876Z,78.47
2023-05-15T05:01:31.398Z,78.74
2023-05-15T05:03:32.973Z,78.24
2023-05-15T05:05:34.462Z,78.41
2023-05-15T05:07:35.959Z,78.63
2023-05-15T05:09:38.487Z,78.66
2023-05-15T05:11:43.665Z,78.45
2023-05-15T05:13:45.117Z,78.91
2023-05-15T05:15:46.613Z,78.96
2023-05-15T05:17:48.169Z,79.02
2023-05-15T05:19:49.666Z,78.96
2023-05-15T05:21:51.152Z,78.25
2023-05-15T05:23:52.662Z,78.40
2023-05-15T05:25:54.126Z,78.77
2023-05-15T05:27:55.701Z,79.85
2023-05-15T05:29:57.224Z,80.20
2023-05-15T05:31:58.864Z,81.27
2023-05-15T05:34:00.433Z,81.51
2023-05-15T05:36:01.971Z,82.11
2023-05-15T05:38:03.469Z,82.17
2023-05-15T05:40:06.561Z,82.53
2023-05-15T05:42:08.064Z,82.64
2023-05-15T05:44:09.547Z,82.24
2023-05-15T05:46:11.013Z,82.22
2023-05-15T05:48:13.542Z,81.37
2023-05-15T05:50:15.019Z,80.61
2023-05-15T05:52:16.769Z,79.64
2023-05-15T05:54:18.613Z,78.82
2023-05-15T05:56:20.076Z,78.53
2023-05-15T05:58:25.572Z,77.64
2023-05-15T06:00:27.822Z,77.83
2023-05-15T06:02:29.451Z,77.99
2023-05-15T06:04:31.678Z,77.21
2023-05-15T06:06:33.833Z,77.57
2023-05-15T06:08:35.344Z,77.54
2023-05-15T06:10:36.819Z,77.73
2023-05-15T06:12:38.374Z,77.76
2023-05-15T06:14:39.825Z,77.06
2023-05-15T06:16:41.289Z,77.08
2023-05-15T06:18:42.937Z,77.20
2023-05-15T06:20:44.436Z,76.24
2023-05-15T06:22:45.894Z,76.26
2023-05-15T06:24:47.329Z,76.01
2023-05-15T06:26:50.355Z,76.58
2023-05-15T06:28:51.985Z,76.15
2023-05-15T06:30:53.569Z,75.63
2023-05-15T06:32:55.086Z,75.74
2023-05-15T06:34:56.566Z,76.27
2023-05-15T06:36:58.131Z,75.85
2023-05-15T06:38:59.622Z,74.64
2023-05-15T06:41:01.058Z,74.37
2023-05-15T06:43:02.524Z,74.02
2023-05-15T06:45:04.220Z,74.29
2023-05-15T06:47:06.094Z,73.61
2023-05-15T06:49:07.741Z,73.94
2023-05-15T06:51:10.831Z,73.81
2023-05-15T06:53:14.393Z,72.77
2023-05-15T06:55:16.182Z,72.87
2023-05-15T06:57:18.007Z,72.54
2023-05-15T06:59:19.524Z,72.12
2023-05-15T07:01:22.244Z,71.88
2023-05-15T07:03:23.902Z,71.62
2023-05-15T07:05:25.508Z,71.41
2023-05-15T07:07:27.168Z,71.64
2023-05-15T07:09:28.876Z,70.68
2023-05-15T07:11:30.437Z,70.76
2023-05-15T07:13:31.891Z,70.60
2023-05-15T07:15:33.326Z,70.42
2023-05-15T07:17:35.277Z,70.25
2023-05-15T07:19:36.997Z,69.97
2023-05-15T07:21:39.343Z,70.20
2023-05-15T07:23:40.730Z,71.07
2023-05-15T07:25:42.183Z,70.85
2023-05-15T07:27:43.674Z,71.12
2023-05-15T07:29:45.171Z,71.77
2023-05-15T07:31:46.645Z,71.70
2023-05-15T07:33:48.172Z,71.14
2023-05-15T07:35:50.882Z,71.48
2023-05-15T07:37:52.370Z,71.44
2023-05-15T07:39:53.914Z,71.13
2023-05-15T07:41:55.458Z,71.35
2023-05-15T07:43:56.927Z,70.10
2023-05-15T07:45:58.434Z,70.53
2023-05-15T07:48:00.149Z,71.04
2023-05-15T07:50:01.838Z,70.62
2023-05-15T07:52:03.291Z,71.04
2023-05-15T07:54:04.835Z,70.50
2023-05-15T07:56:06.308Z,70.33
2023-05-15T07:58:08.213Z,71.03
2023-05-15T08:00:12.873Z,71.68
2023-05-15T08:02:14.476Z,72.68
2023-05-15T08:04:16.000Z,73.02
2023-05-15T08:06:17.563Z,72.67
2023-05-15T08:08:19.045Z,72.37
2023-05-15T08:10:20.623Z,72.10
2023-05-15T08:12:22.179Z,71.36
2023-05-15T08:14:23.667Z,71.21
2023-05-15T08:16:25.296Z,71.29
2023-05-15T08:18:26.957Z,71.50
2023-05-15T08:20:28.480Z,71.80
2023-05-15T08:22:30.635Z,71.72
2023-05-15T08:24:32.159Z,72.18
2023-05-15T08:26:33.779Z,72.45
2023-05-15T08:28:35.239Z,72.37
2023-05-15T08:30:36.692Z,71.89
2023-05-15T08:32:38.249Z,71.90
2023-05-15T08:34:39.774Z,71.35
2023-05-15T08:36:41.260Z,71.87
2023-05-15T08:38:42.718Z,72.33
2023-05-15T08:40:46.213Z,72.29
2023-05-15T08:42:48.886Z,71.90
2023-05-15T08:44:50.638Z,72.04
2023-05-15T08:46:52.548Z,71.79
2023-05-15T08:48:54.003Z,71.26
2023-05-15T08:50:58.536Z,70.64
2023-05-15T08:53:01.666Z,70.55
2023-05-15T08:55:03.768Z,70.85
2023-05-15T08:57:05.461Z,70.69
2023-05-15T08:59:06.939Z,70.83
2023-05-15T09:01:08.457Z,71.45
2023-05-15T09:03:14.158Z,71.57
2023-05-15T09:05:15.869Z,71.13
2023-05-15T09:07:17.363Z,71.18
2023-05-15T09:09:18.813Z,70.98
2023-05-15T09:11:21.777Z,70.67
2023-05-15T09:13:23.336Z,70.08
2023-05-15T09:15:25.593Z,70.21
2023-05-15T09:17:27.322Z,70.35
2023-05-15T09:19:28.894Z,69.82
2023-05-15T09:21:33.857Z,69.92
2023-05-15T09:23:35.295Z,69.99
2023-05-15T09:25:38.242Z,69.56
2023-05-15T09:27:43.180Z,71.02
2023-05-15T09:29:45.279Z,70.92
2023-05-15T09:31:47.366Z,70.78
2023-05-15T09:33:49.400Z,69.01
2023-05-15T09:35:51.285Z,69.44
2023-05-15T09:37:57.515Z,70.02
2023-05-15T09:40:11.846Z,69.71
2023-05-15T09:42:13.955Z,68.99
2023-05-15T09:44:21.414Z,69.39
2023-05-15T09:46:23.747Z,69.32
2023-05-15T09:48:25.392Z,68.58
2023-05-15T09:50:33.004Z,68.93
2023-05-15T09:52:34.455Z,68.71
2023-05-15T09:54:36.065Z,68.51
2023-05-15T09:56:37.670Z,68.67
2023-05-15T09:58:39.212Z,69.50
2023-05-15T10:00:47.770Z,69.58
2023-05-15T10:02:50.642Z,69.31
2023-05-15T10:04:56.544Z,68.95
2023-05-15T10:06:57.993Z,68.57
2023-05-15T10:09:00.165Z,68.10
2023-05-15T10:11:01.736Z,68.40
2023-05-15T10:13:05.819Z,68.92
2023-05-15T10:15:07.438Z,68.96
2023-05-15T10:17:08.919Z,68.36
2023-05-15T10:19:10.903Z,67.40
2023-05-15T10:21:12.462Z,67.48
2023-05-15T10:23:13.920Z,66.59
2023-05-15T10:25:28.652Z,67.37
2023-05-15T10:27:30.712Z,67.66
2023-05-15T10:29:32.230Z,68.08
2023-05-15T10:31:34.454Z,67.88
2023-05-15T10:33:35.955Z,67.58
2023-05-15T10:35:38.379Z,67.17
2023-05-15T10:37:40.608Z,66.64
2023-05-15T10:39:42.111Z,66.45
2023-05-15T10:41:43.587Z,66.39
2023-05-15T10:43:45.033Z,66.35
2023-05-15T10:45:46.828Z,66.81
2023-05-15T10:47:48.410Z,67.45
2023-05-15T10:49:49.904Z,67.85
2023-05-15T10:51:52.127Z,67.97
2023-05-15T10:53:53.900Z,68.07
2023-05-15T10:55:55.489Z,68.30
2023-05-15T10:57:57.265Z,68.25
2023-05-15T10:59:58.721Z,68.38
2023-05-15T11:02:19.143Z,68.55
2023-05-15T11:04:20.855Z,67.52
2023-05-15T11:06:28.401Z,67.71
2023-05-15T11:08:30.355Z,67.23
2023-05-15T11:10:31.834Z,67.85
2023-05-15T11:12:53.583Z,68.44
2023-05-15T11:14:55.099Z,67.88
2023-05-15T11:16:58.044Z,67.01
2023-05-15T11:18:59.523Z,67.31
2023-05-15T11:21:01.088Z,67.49
2023-05-15T11:23:02.956Z,67.91
2023-05-15T11:25:12.602Z,67.85
2023-05-15T11:27:17.575Z,67.07
2023-05-15T11:29:19.504Z,67.37
2023-05-15T11:31:21.153Z,67.07
2023-05-15T11:33:22.659Z,66.75
2023-05-15T11:35:26.990Z,67.16
2023-05-15T11:37:28.419Z,67.10
2023-05-15T11:39:29.935Z,66.57
2023-05-15T11:41:31.883Z,66.74
2023-05-15T11:43:33.592Z,66.33
2023-05-15T11:45:39.417Z,65.68
2023-05-15T11:47:40.949Z,65.54
2023-05-15T11:49:42.498Z,65.49
2023-05-15T11:51:44.002Z,65.16
2023-05-15T11:53:45.609Z,64.55
2023-05-15T11:55:47.104Z,64.01
2023-05-15T11:57:48.879Z,63.58
2023-05-15T11:59:53.737Z,63.37
2023-05-15T12:01:55.209Z,63.30
2023-05-15T12:03:56.870Z,62.67
2023-05-15T12:06:00.325Z,63.31
2023-05-15T12:08:02.380Z,63.18
2023-05-15T12:10:04.025Z,63.22
2023-05-15T12:12:08.307Z,62.42
2023-05-15T12:14:12.943Z,62.70
2023-05-15T12:16:14.442Z,62.96
2023-05-15T12:18:15.974Z,64.11
2023-05-15T12:20:17.956Z,63.38
2023-05-15T12:22:19.493Z,64.23
2023-05-15T12:24:21.518Z,63.88
2023-05-15T12:26:23.264Z,63.40
2023-05-15T12:28:24.818Z,62.93
2023-05-15T12:30:27.086Z,62.62
2023-05-15T12:32:30.127Z,63.15
2023-05-15T12:34:31.702Z,63.18
2023-05-15T12:36:33.270Z,63.09
2023-05-15T12:38:35.116Z,62.50
2023-05-15T12:40:36.954Z,62.63
2023-05-15T12:42:42.193Z,62.31
2023-05-15T12:44:44.205Z,61.62
2023-05-15T12:46:46.267Z,61.78
2023-05-15T12:48:47.836Z,61.99
2023-05-15T12:50:50.121Z,61.29
2023-05-15T12:52:52.944Z,61.02
2023-05-15T12:54:54.477Z,59.71
2023-05-15T12:56:57.480Z,59.80
2023-05-15T12:58:59.232Z,61.16
2023-05-15T13:01:03.202Z,60.94
2023-05-15T13:03:05.036Z,61.55
2023-05-15T13:05:07.201Z,60.93
2023-05-15T13:07:08.706Z,60.72
2023-05-15T13:09:10.173Z,60.79
2023-05-15T13:11:13.019Z,59.69
2023-05-15T13:13:14.811Z,60.02
2023-05-15T13:15:25.541Z,59.46
2023-05-15T13:17:29.439Z,59.11
2023-05-15T13:19:30.974Z,58.24
2023-05-15T13:21:33.039Z,58.99
2023-05-15T13:23:34.502Z,59.29
2023-05-15T13:25:36.138Z,58.74
2023-05-15T13:27:37.554Z,57.34
2023-05-15T13:29:39.015Z,57.28
2023-05-15T13:31:40.527Z,57.28
2023-05-15T13:33:42.058Z,57.24
2023-05-15T13:35:43.522Z,57.92
2023-05-15T13:37:44.986Z,58.84
2023-05-15T13:39:46.436Z,59.47
2023-05-15T13:41:47.941Z,58.19
2023-05-15T13:43:49.484Z,58.63
2023-05-15T13:45:51.006Z,58.38
2023-05-15T13:47:52.723Z,58.04
2023-05-15T13:49:54.258Z,57.46
2023-05-15T13:51:55.733Z,56.29
2023-05-15T13:53:57.242Z,56.19
2023-05-15T13:58:17.418Z,55.76
2023-05-15T14:00:19.813Z,54.90
2023-05-15T14:02:23.520Z,55.33
2023-05-15T14:04:25.114Z,55.73
2023-05-15T14:06:27.890Z,55.19
2023-05-15T14:08:29.404Z,55.49
2023-05-15T14:10:30.944Z,54.04
2023-05-15T14:12:32.660Z,53.86
2023-05-15T14:14:34.139Z,53.61
2023-05-15T14:16:35.653Z,53.07
2023-05-15T14:18:37.236Z,53.76
2023-05-15T14:20:38.883Z,54.44
2023-05-15T14:22:40.418Z,54.36
2023-05-15T14:24:41.914Z,55.14
2023-05-15T14:26:44.470Z,55.00
2023-05-15T14:28:46.191Z,55.29
2023-05-15T14:30:47.617Z,55.43
2023-05-15T14:32:49.088Z,56.25
2023-05-15T14:34:50.677Z,56.50
2023-05-15T14:36:52.167Z,56.23
2023-05-15T14:38:53.591Z,56.19
2023-05-15T14:40:55.021Z,56.29
2023-05-15T14:42:56.460Z,56.74
2023-05-15T14:44:57.989Z,57.51
2023-05-15T14:47:06.964Z,57.44
2023-05-15T14:49:08.452Z,57.43
2023-05-15T14:51:09.988Z,57.07
2023-05-15T14:53:11.467Z,57.21
2023-05-15T14:55:12.986Z,57.11
2023-05-15T14:57:16.307Z,56.93
2023-05-15T14:59:17.763Z,57.52
2023-05-15T15:01:19.543Z,58.01
2023-05-15T15:03:22.097Z,58.01
2023-05-15T15:05:23.744Z,57.77
2023-05-15T15:07:28.990Z,57.61
2023-05-15T15:09:30.531Z,57.24
2023-05-15T15:11:32.062Z,56.42
2023-05-15T15:13:33.536Z,55.77
2023-05-15T15:15:35.101Z,55.49
2023-05-15T15:17:36.621Z,55.05
2023-05-15T15:19:38.141Z,55.35
2023-05-15T15:21:39.795Z,55.12
2023-05-15T15:23:41.206Z,54.70
2023-05-15T15:25:42.672Z,54.05
2023-05-15T15:27:44.283Z,54.35
2023-05-15T15:29:45.733Z,54.19
2023-05-15T15:31:47.229Z,54.25
2023-05-15T15:33:48.729Z,54.02
2023-05-15T15:35:50.258Z,54.12
2023-05-15T15:37:52.083Z,55.01
2023-05-15T15:39:53.615Z,55.21
2023-05-15T15:41:55.150Z,55.48
2023-05-15T15:43:56.606Z,55.29
2023-05-15T15:45:58.088Z,55.72
2023-05-15T15:47:59.800Z,55.70
2023-05-15T15:50:01.347Z,55.74
2023-05-15T15:52:02.811Z,55.56
2023-05-15T15:54:04.391Z,55.30
2023-05-15T15:56:06.692Z,54.50
2023-05-15T15:58:08.238Z,54.57
2023-05-15T16:00:10.014Z,54.57
2023-05-15T16:02:11.779Z,54.95
2023-05-15T16:04:13.421Z,55.68
2023-05-15T16:06:15.064Z,55.77
2023-05-15T16:08:16.662Z,55.75
2023-05-15T16:10:18.192Z,56.01
2023-05-15T16:12:19.683Z,56.70
2023-05-15T16:14:21.408Z,56.97
2023-05-15T16:16:22.934Z,57.13
2023-05-15T16:18:24.451Z,57.20
2023-05-15T16:20:26.218Z,58.02
2023-05-15T16:22:27.873Z,58.02
2023-05-15T16:24:29.483Z,57.86
2023-05-15T16:26:31.031Z,58.67
2023-05-15T16:28:32.503Z,58.96
2023-05-15T16:30:48.264Z,59.33
2023-05-15T16:32:50.929Z,59.54
2023-05-15T16:34:52.480Z,60.11
2023-05-15T16:36:53.952Z,60.21
2023-05-15T16:38:55.548Z,61.33
2023-05-15T16:40:57.155Z,61.62
2023-05-15T16:42:58.800Z,61.41
2023-05-15T16:45:00.473Z,61.65
2023-05-15T16:47:02.035Z,62.26
2023-05-15T16:49:03.839Z,62.42
2023-05-15T16:51:05.500Z,63.02
2023-05-15T16:53:07.418Z,63.67
2023-05-15T16:55:08.973Z,63.57
2023-05-15T16:57:10.606Z,63.64
2023-05-15T16:59:12.104Z,63.69
2023-05-15T17:01:13.560Z,63.71
2023-05-15T17:03:15.198Z,63.94
2023-05-15T17:05:17.384Z,64.15
2023-05-15T17:07:18.838Z,64.43
2023-05-15T17:09:21.265Z,64.34
2023-05-15T17:11:22.750Z,64.67
2023-05-15T17:13:25.483Z,64.83
2023-05-15T17:15:28.624Z,65.21
2023-05-15T17:17:30.218Z,65.22
2023-05-15T17:19:32.552Z,65.35
2023-05-15T17:21:35.053Z,65.37
2023-05-15T17:23:36.537Z,65.55
2023-05-15T17:25:37.966Z,65.51
2023-05-15T17:27:41.536Z,65.62
2023-05-15T17:29:43.277Z,65.71
2023-05-15T17:31:45.648Z,65.93
2023-05-15T17:33:47.820Z,66.14
2023-05-15T17:35:49.401Z,65.79
2023-05-15T17:37:51.686Z,65.60
2023-05-15T17:39:54.608Z,65.68
2023-05-15T17:41:56.068Z,65.34
2023-05-15T17:43:57.493Z,65.46
2023-05-15T17:46:00.528Z,65.64
2023-05-15T17:48:04.179Z,65.89
2023-05-15T17:50:06.182Z,66.04
2023-05-15T17:52:07.770Z,66.13
2023-05-15T17:54:09.243Z,65.96
2023-05-15T17:56:10.859Z,65.45
2023-05-15T17:58:12.327Z,65.67
2023-05-15T18:00:14.540Z,65.36
2023-05-15T18:02:16.017Z,65.74
2023-05-15T18:04:17.566Z,66.00
2023-05-15T18:06:19.044Z,66.08
2023-05-15T18:08:20.636Z,65.78
2023-05-15T18:10:22.115Z,65.29
2023-05-15T18:12:23.656Z,65.09
2023-05-15T18:14:25.092Z,65.52
2023-05-15T18:16:26.853Z,65.79
2023-05-15T18:18:28.518Z,66.16
2023-05-15T18:20:30.035Z,66.47
2023-05-15T18:22:31.642Z,66.34
2023-05-15T18:24:33.099Z,66.59
2023-05-15T18:26:34.602Z,66.49
2023-05-15T18:28:36.157Z,66.24
2023-05-15T18:30:37.567Z,66.46
2023-05-15T18:32:39.238Z,66.62
2023-05-15T18:34:40.899Z,66.72
2023-05-15T18:36:42.549Z,67.03
2023-05-15T18:38:43.984Z,67.47
2023-05-15T18:40:48.653Z,67.96
2023-05-15T18:42:50.253Z,68.25
2023-05-15T18:44:51.996Z,68.07
2023-05-15T18:46:53.481Z,68.22
2023-05-15T18:48:55.044Z,68.13
2023-05-15T18:50:56.493Z,68.10
2023-05-15T18:52:57.988Z,68.21
2023-05-15T18:55:00.563Z,68.63
2023-05-15T18:57:02.091Z,68.42
2023-05-15T18:59:03.563Z,68.98
2023-05-15T19:01:05.032Z,69.66
2023-05-15T19:03:08.352Z,70.00
2023-05-15T19:05:10.126Z,70.02
2023-05-15T19:07:11.602Z,70.17
2023-05-15T19:09:13.078Z,69.99
2023-05-15T19:11:15.634Z,70.04
2023-05-15T19:13:17.340Z,70.30
2023-05-15T19:15:19.682Z,69.82
2023-05-15T19:17:21.656Z,69.70
2023-05-15T19:19:23.624Z,70.02
2023-05-15T19:21:25.360Z,70.31
2023-05-15T19:23:26.851Z,70.21
2023-05-15T19:25:28.394Z,69.98
2023-05-15T19:27:29.954Z,70.39
2023-05-15T19:29:32.178Z,70.58
2023-05-15T19:31:33.912Z,70.48
2023-05-15T19:33:35.568Z,70.77
2023-05-15T19:35:37.642Z,71.17
2023-05-15T19:37:39.334Z,70.97
2023-05-15T19:39:41.077Z,71.05
2023-05-15T19:41:42.775Z,70.54
2023-05-15T19:43:46.512Z,70.98
2023-05-15T19:45:47.946Z,71.51
2023-05-15T19:47:49.469Z,72.29
2023-05-15T19:49:51.001Z,72.53
2023-05-15T19:51:52.895Z,72.61
2023-05-15T19:53:54.422Z,72.13
2023-05-15T19:55:56.556Z,71.65
2023-05-15T19:57:57.996Z,71.34
2023-05-15T19:59:59.471Z,71.47
2023-05-15T20:02:01.788Z,71.54
2023-05-15T20:04:03.468Z,71.66
2023-05-15T20:06:05.135Z,71.56
2023-05-15T20:08:06.605Z,71.36
2023-05-15T20:10:09.164Z,70.97
2023-05-15T20:12:11.039Z,71.17
2023-05-15T20:14:13.959Z,70.77
2023-05-15T20:16:16.720Z,70.89
2023-05-15T20:18:18.561Z,70.59
2023-05-15T20:20:20.073Z,70.71
2023-05-15T20:22:21.533Z,70.61
2023-05-15T20:24:25.823Z,70.56
2023-05-15T20:26:27.420Z,70.38
2023-05-15T20:28:29.028Z,70.17
2023-05-15T20:30:30.477Z,70.13
2023-05-15T20:32:32.115Z,70.67
2023-05-15T20:34:34.539Z,70.81
2023-05-15T20:36:38.989Z,70.95
2023-05-15T20:38:40.601Z,70.85
2023-05-15T20:40:42.052Z,71.18
2023-05-15T20:42:43.458Z,71.30
2023-05-15T20:44:45.323Z,71.53
2023-05-15T20:46:46.814Z,71.95
2023-05-15T20:48:48.459Z,72.13
2023-05-15T20:50:53.178Z,72.84
2023-05-15T20:52:54.689Z,73.22
2023-05-15T20:54:56.168Z,73.42
2023-05-15T20:56:57.590Z,73.37
2023-05-15T20:58:59.878Z,73.46
2023-05-15T21:01:01.643Z,73.66
2023-05-15T21:03:03.329Z,73.94
2023-05-15T21:05:04.958Z,74.05
2023-05-15T21:07:06.954Z,74.23
2023-05-15T21:09:08.751Z,74.16
2023-05-15T21:11:10.223Z,74.57
2023-05-15T21:13:12.040Z,74.98
2023-05-15T21:15:13.546Z,74.98
2023-05-15T21:17:15.144Z,74.86
2023-05-15T21:19:16.726Z,74.73
2023-05-15T21:21:18.596Z,74.54
2023-05-15T21:23:21.295Z,74.55
2023-05-15T21:25:22.827Z,74.62
2023-05-15T21:27:24.326Z,74.49
2023-05-15T21:29:25.768Z,74.99
2023-05-15T21:31:27.649Z,75.35
2023-05-15T21:33:29.199Z,75.06
2023-05-15T21:35:31.842Z,75.32
2023-05-15T21:37:33.430Z,75.48
2023-05-15T21:39:34.949Z,74.94
2023-05-15T21:41:36.433Z,74.79
2023-05-15T21:43:37.895Z,74.64
2023-05-15T21:45:39.433Z,74.29
2023-05-15T21:47:40.963Z,74.71
2023-05-15T21:49:42.426Z,74.51
2023-05-15T21:51:43.955Z,74.50
2023-05-15T21:53:45.743Z,74.70
2023-05-15T21:55:48.343Z,74.97
2023-05-15T21:57:50.263Z,75.21
2023-05-15T21:59:51.690Z,74.79
2023-05-15T22:01:53.252Z,74.57
2023-05-15T22:03:54.815Z,74.54
2023-05-15T22:05:56.500Z,74.17
2023-05-15T22:07:58.057Z,74.01
2023-05-15T22:09:59.638Z,73.64
2023-05-15T22:12:01.102Z,73.47
2023-05-15T22:14:03.110Z,73.65
2023-05-15T22:16:04.669Z,73.63
2023-05-15T22:18:06.223Z,73.51
2023-05-15T22:20:11.468Z,73.57
2023-05-15T22:22:12.903Z,73.56
2023-05-15T22:24:14.365Z,73.40
2023-05-15T22:26:15.983Z,73.48
2023-05-15T22:28:17.585Z,73.29
2023-05-15T22:30:19.147Z,73.15
2023-05-15T22:32:20.751Z,72.71
2023-05-15T22:34:22.315Z,72.68
2023-05-15T22:36:23.795Z,72.58
2023-05-15T22:38:25.380Z,72.40
2023-05-15T22:40:27.276Z,72.29
2023-05-15T22:42:29.114Z,71.97
2023-05-15T22:44:30.604Z,71.98
2023-05-15T22:46:32.113Z,71.93
2023-05-15T22:48:34.170Z,71.79
2023-05-15T22:50:36.239Z,71.65
2023-05-15T22:52:38.427Z,71.85
2023-05-15T22:54:40.219Z,71.79
2023-05-15T22:56:42.089Z,71.73
2023-05-15T22:58:43.647Z,71.41
2023-05-15T23:00:45.423Z,71.16
2023-05-15T23:02:46.922Z,71.13
2023-05-15T23:04:48.423Z,71.01
2023-05-15T23:06:49.915Z,70.97
2023-05-15T23:08:51.569Z,70.91
2023-05-15T23:10:53.423Z,71.04
2023-05-15T23:12:55.128Z,71.09
2023-05-15T23:14:56.552Z,71.08
2023-05-15T23:16:57.999Z,71.07
2023-05-15T23:19:00.015Z,71.15
2023-05-15T23:21:02.542Z,71.10
2023-05-15T23:23:04.084Z,70.97
2023-05-15T23:25:06.241Z,70.87
2023-05-15T23:27:07.964Z,71.00
2023-05-15T23:29:09.603Z,70.90
2023-05-15T23:31:12.840Z,70.89
2023-05-15T23:33:14.436Z,70.94
2023-05-15T23:35:16.070Z,70.95
2023-05-15T23:37:17.591Z,71.02
2023-05-15T23:39:19.038Z,70.83
2023-05-15T23:41:22.106Z,71.12
2023-05-15T23:43:23.574Z,71.26
2023-05-15T23:45:25.051Z,71.05
2023-05-15T23:47:26.569Z,71.14
2023-05-15T23:49:28.067Z,71.09
2023-05-15T23:51:29.749Z,71.33
2023-05-15T23:53:31.353Z,71.35
2023-05-15T23:55:33.194Z,71.42
2023-05-15T23:57:34.695Z,71.36
2023-05-15T23:59:36.361Z,71.46
